createdAt,value
2023-10-03T00:00:35.572Z,16.58
2023-10-03T00:03:37.786Z,14.68
2023-10-03T00:06:40.510Z,15.05
2023-10-03T00:09:42.788Z,15.98
2023-10-03T00:12:49.728Z,16.48
2023-10-03T00:15:51.778Z,16.13
2023-10-03T00:18:53.558Z,14.52
2023-10-03T00:21:55.569Z,14.63
2023-10-03T00:24:58.118Z,16.23
2023-10-03T00:28:03.060Z,14.57
2023-10-03T00:31:14.488Z,15.13
2023-10-03T00:34:16.392Z,14.75
2023-10-03T00:37:18.664Z,13.82
2023-10-03T00:40:22.303Z,14.10
2023-10-03T00:43:26.158Z,14.65
2023-10-03T00:46:31.271Z,14.15
2023-10-03T00:49:33.145Z,14.50
2023-10-03T00:52:36.367Z,14.00
2023-10-03T00:55:39.784Z,14.40
2023-10-03T00:58:42.662Z,14.32
2023-10-03T01:01:47.637Z,14.00
2023-10-03T01:04:50.560Z,14.57
2023-10-03T01:07:52.508Z,13.82
2023-10-03T01:10:56.286Z,13.82
2023-10-03T01:13:59.970Z,13.35
2023-10-03T01:17:03.797Z,14.07
2023-10-03T01:20:17.994Z,13.52
2023-10-03T01:23:20.633Z,13.02
2023-10-03T01:26:22.808Z,14.25
2023-10-03T01:29:24.840Z,12.80
2023-10-03T01:32:32.881Z,13.07
2023-10-03T01:35:35.262Z,11.43
2023-10-03T01:38:40.004Z,13.07
2023-10-03T01:41:43.760Z,12.40
2023-10-03T01:44:45.975Z,11.98
2023-10-03T01:47:52.796Z,13.27
2023-10-03T01:50:54.915Z,12.32
2023-10-03T01:53:59.495Z,12.02
2023-10-03T01:57:02.004Z,11.43
2023-10-03T02:00:19.252Z,10.80
2023-10-03T02:03:22.445Z,11.35
2023-10-03T02:09:26.441Z,10.95
2023-10-03T02:12:28.700Z,10.02
2023-10-03T02:15:30.504Z,11.05
2023-10-03T02:18:32.383Z,11.07
2023-10-03T02:21:34.349Z,10.27
2023-10-03T02:24:37.362Z,9.63
2023-10-03T02:27:39.662Z,10.18
2023-10-03T02:30:41.721Z,10.88
2023-10-03T02:33:45.644Z,10.50
2023-10-03T02:36:49.714Z,10.38
2023-10-03T02:39:52.971Z,10.15
2023-10-03T02:42:55.977Z,9.88
2023-10-03T02:45:58.386Z,10.63
2023-10-03T02:49:00.596Z,9.15
2023-10-03T02:52:05.107Z,9.65
2023-10-03T02:55:13.413Z,10.55
2023-10-03T02:58:16.303Z,9.32
2023-10-03T03:01:18.793Z,10.27
2023-10-03T03:04:22.888Z,10.23
2023-10-03T03:07:28.791Z,9.65
2023-10-03T03:10:32.190Z,9.48
2023-10-03T03:13:36.735Z,10.02
2023-10-03T03:16:41.714Z,9.77
2023-10-03T03:19:45.469Z,9.55
2023-10-03T03:22:50.526Z,9.90
2023-10-03T03:26:07.473Z,9.65
2023-10-03T03:29:22.401Z,9.73
2023-10-03T03:32:28.704Z,9.40
2023-10-03T03:35:39.120Z,9.88
2023-10-03T03:38:40.982Z,9.15
2023-10-03T03:41:44.236Z,9.23
2023-10-03T03:44:46.824Z,8.75
2023-10-03T03:47:51.708Z,9.73
2023-10-03T03:50:53.878Z,8.35
2023-10-03T03:53:56.498Z,8.48
2023-10-03T03:56:58.456Z,9.50
2023-10-03T04:00:00.447Z,8.82
2023-10-03T04:03:26.049Z,9.68
2023-10-03T04:06:28.118Z,9.18
2023-10-03T04:09:29.895Z,9.32
2023-10-03T04:12:32.501Z,9.30
2023-10-03T04:15:34.396Z,9.85
2023-10-03T04:18:38.317Z,8.98
2023-10-03T04:21:42.660Z,9.20
2023-10-03T04:24:44.919Z,9.52
2023-10-03T04:27:55.548Z,9.55
2023-10-03T04:30:57.568Z,8.73
2023-10-03T04:33:59.418Z,8.10
2023-10-03T04:37:01.347Z,9.48
2023-10-03T04:40:04.567Z,9.00
2023-10-03T04:43:12.327Z,8.82
2023-10-03T04:46:14.524Z,9.35
2023-10-03T04:49:19.264Z,8.95
2023-10-03T04:52:21.057Z,9.02
2023-10-03T04:55:24.296Z,9.07
2023-10-03T04:58:26.065Z,8.45
2023-10-03T05:01:28.247Z,8.02
2023-10-03T05:04:30.138Z,8.23
2023-10-03T05:07:32.206Z,7.82
2023-10-03T05:10:34.881Z,7.93
2023-10-03T05:13:37.782Z,8.02
2023-10-03T05:16:40.570Z,7.05
2023-10-03T05:19:45.340Z,7.32
2023-10-03T05:22:47.741Z,7.05
2023-10-03T05:25:49.818Z,6.90
2023-10-03T05:28:56.850Z,7.03
2023-10-03T05:32:01.313Z,6.57
2023-10-03T05:35:06.157Z,6.65
2023-10-03T05:38:12.082Z,6.10
2023-10-03T05:41:22.418Z,5.78
2023-10-03T05:44:26.071Z,6.53
2023-10-03T05:47:29.593Z,6.03
2023-10-03T05:50:32.709Z,6.10
2023-10-03T05:53:35.865Z,6.22
2023-10-03T05:56:38.675Z,5.65
2023-10-03T05:59:40.657Z,5.07
2023-10-03T06:02:43.384Z,5.57
2023-10-03T06:05:47.109Z,4.80
2023-10-03T06:08:50.508Z,5.25
2023-10-03T06:11:54.245Z,5.32
2023-10-03T06:14:56.676Z,5.28
2023-10-03T06:17:58.645Z,4.55
2023-10-03T06:21:00.615Z,5.15
2023-10-03T06:24:02.861Z,4.90
2023-10-03T06:27:06.636Z,5.38
2023-10-03T06:30:09.248Z,5.15
2023-10-03T06:33:12.080Z,5.47
2023-10-03T06:36:14.228Z,5.68
2023-10-03T06:39:16.454Z,5.30
2023-10-03T06:42:20.035Z,5.78
2023-10-03T06:45:22.504Z,5.68
2023-10-03T06:48:25.668Z,5.60
2023-10-03T06:51:27.745Z,5.13
2023-10-03T06:54:30.510Z,5.95
2023-10-03T06:57:34.304Z,5.78
2023-10-03T07:00:37.666Z,5.70
2023-10-03T07:06:45.150Z,5.43
2023-10-03T07:09:47.266Z,5.45
2023-10-03T07:12:49.662Z,5.53
2023-10-03T07:15:51.546Z,5.10
2023-10-03T07:18:54.346Z,5.53
2023-10-03T07:21:56.695Z,5.55
2023-10-03T07:24:58.854Z,4.60
2023-10-03T07:28:00.992Z,5.18
2023-10-03T07:31:03.857Z,4.55
2023-10-03T07:34:05.919Z,4.72
2023-10-03T07:37:07.758Z,5.05
2023-10-03T07:40:11.636Z,5.00
2023-10-03T07:43:13.874Z,4.40
2023-10-03T07:46:26.802Z,4.90
2023-10-03T07:52:31.749Z,4.63
2023-10-03T07:55:36.783Z,4.97
2023-10-03T07:58:40.130Z,5.15
2023-10-03T08:05:03.141Z,5.18
2023-10-03T08:08:06.362Z,4.77
2023-10-03T08:11:09.258Z,5.00
2023-10-03T08:14:15.023Z,4.75
2023-10-03T08:17:17.296Z,5.20
2023-10-03T08:20:20.119Z,5.10
2023-10-03T08:23:22.028Z,4.68
2023-10-03T08:26:26.467Z,5.43
2023-10-03T08:29:28.947Z,5.00
2023-10-03T08:32:32.741Z,4.80
2023-10-03T08:35:39.137Z,5.07
2023-10-03T08:38:45.328Z,4.82
2023-10-03T08:42:14.660Z,4.85
2023-10-03T08:45:18.649Z,5.35
2023-10-03T08:48:27.626Z,5.00
2023-10-03T08:51:35.068Z,5.75
2023-10-03T08:54:38.775Z,4.95
2023-10-03T08:57:41.274Z,5.53
2023-10-03T09:00:59.805Z,4.80
2023-10-03T09:04:06.536Z,5.22
2023-10-03T09:07:10.363Z,5.75
2023-10-03T09:10:23.858Z,5.25
2023-10-03T09:13:29.331Z,5.32
2023-10-03T09:16:32.037Z,5.30
2023-10-03T09:19:47.558Z,4.97
2023-10-03T09:22:50.413Z,4.90
2023-10-03T09:25:55.820Z,5.27
2023-10-03T09:29:00.076Z,4.75
2023-10-03T09:32:15.135Z,5.80
2023-10-03T09:35:17.924Z,5.22
2023-10-03T09:38:26.399Z,4.60
2023-10-03T09:41:30.831Z,4.95
2023-10-03T09:44:32.862Z,5.18
2023-10-03T09:47:39.268Z,5.07
2023-10-03T09:50:52.924Z,5.13
2023-10-03T09:53:57.702Z,4.97
2023-10-03T09:57:02.111Z,5.28
2023-10-03T10:00:24.255Z,5.47
2023-10-03T10:03:32.690Z,3.55
2023-10-03T10:06:53.561Z,2.47
2023-10-03T10:10:15.169Z,2.03
2023-10-03T10:13:23.491Z,2.90
2023-10-03T10:16:29.484Z,2.45
2023-10-03T10:20:10.126Z,2.42
2023-10-03T10:23:12.693Z,2.42
2023-10-03T10:26:50.433Z,2.20
2023-10-03T10:30:19.068Z,2.63
2023-10-03T10:33:24.048Z,2.53
2023-10-03T10:37:06.111Z,1.85
2023-10-03T10:40:11.865Z,1.95
2023-10-03T10:43:17.871Z,1.70
2023-10-03T10:46:48.579Z,1.42
2023-10-03T10:50:17.426Z,1.52
2023-10-03T10:53:21.453Z,1.20
2023-10-03T10:56:27.302Z,1.40
2023-10-03T10:59:31.288Z,1.27
2023-10-03T11:05:46.940Z,1.40
2023-10-03T11:08:53.094Z,1.35
2023-10-03T11:11:56.955Z,1.30
2023-10-03T11:15:00.053Z,1.50
2023-10-03T11:18:02.213Z,1.48
2023-10-03T11:21:04.947Z,1.45
2023-10-03T11:24:15.153Z,1.55
2023-10-03T11:27:28.059Z,1.25
2023-10-03T11:30:31.005Z,1.10
2023-10-03T11:33:48.257Z,1.40
2023-10-03T11:40:20.000Z,0.68
2023-10-03T11:43:22.112Z,0.68
2023-10-03T11:46:23.989Z,0.80
2023-10-03T11:49:26.863Z,0.75
2023-10-03T11:52:30.612Z,0.88
2023-10-03T11:55:34.319Z,0.50
2023-10-03T11:58:37.001Z,0.60
2023-10-03T12:01:38.867Z,0.80
2023-10-03T12:04:40.661Z,0.70
2023-10-03T12:07:47.137Z,0.85
2023-10-03T12:10:50.249Z,1.33
2023-10-03T12:13:52.027Z,1.05
2023-10-03T12:16:53.777Z,1.10
2023-10-03T12:19:58.679Z,1.40
2023-10-03T12:23:00.812Z,1.10
2023-10-03T12:26:09.391Z,1.27
2023-10-03T12:29:18.244Z,0.95
2023-10-03T12:32:20.006Z,1.20
2023-10-03T12:35:22.740Z,1.20
2023-10-03T12:38:24.847Z,1.13
2023-10-03T12:41:30.755Z,1.05
2023-10-03T12:44:33.873Z,1.20
2023-10-03T12:47:38.642Z,1.13
2023-10-03T12:50:40.652Z,1.48
2023-10-03T12:53:42.828Z,1.30
2023-10-03T12:56:47.733Z,1.30
2023-10-03T12:59:53.464Z,1.17
2023-10-03T13:03:01.305Z,1.10
2023-10-03T13:06:03.447Z,1.30
2023-10-03T13:09:06.178Z,1.23
2023-10-03T13:12:09.783Z,1.23
2023-10-03T13:18:15.809Z,1.30
2023-10-03T13:21:17.963Z,1.50
2023-10-03T13:24:21.590Z,2.08
2023-10-03T13:27:23.478Z,1.80
2023-10-03T13:30:29.587Z,1.60
2023-10-03T13:33:33.058Z,1.33
2023-10-03T13:36:35.172Z,1.65
2023-10-03T13:39:37.167Z,1.35
2023-10-03T13:42:39.942Z,2.05
2023-10-03T13:45:41.715Z,1.63
2023-10-03T13:48:43.712Z,1.50
2023-10-03T13:51:47.917Z,1.83
2023-10-03T13:54:50.049Z,1.40
2023-10-03T13:57:53.743Z,1.63
2023-10-03T14:00:55.983Z,1.90
2023-10-03T14:03:58.594Z,2.33
2023-10-03T14:07:00.525Z,1.63
2023-10-03T14:10:07.124Z,2.35
2023-10-03T14:13:08.859Z,1.67
2023-10-03T14:16:10.684Z,2.03
2023-10-03T14:19:12.437Z,2.20
2023-10-03T14:22:15.459Z,2.00
2023-10-03T14:25:17.837Z,2.13
2023-10-03T14:28:19.613Z,2.20
2023-10-03T14:31:21.463Z,2.40
2023-10-03T14:34:23.490Z,2.25
2023-10-03T14:37:28.507Z,2.22
2023-10-03T14:40:30.292Z,2.35
2023-10-03T14:43:33.758Z,2.58
2023-10-03T14:46:35.788Z,2.25
2023-10-03T14:49:37.531Z,2.20
2023-10-03T14:52:40.650Z,2.78
2023-10-03T14:55:43.290Z,2.63
2023-10-03T14:58:45.304Z,2.80
2023-10-03T15:01:47.066Z,2.83
2023-10-03T15:04:49.034Z,3.20
2023-10-03T15:07:50.988Z,2.67
2023-10-03T15:11:07.375Z,2.88
2023-10-03T15:14:09.149Z,3.67
2023-10-03T15:17:12.381Z,3.28
2023-10-03T15:23:16.232Z,3.30
2023-10-03T15:26:18.491Z,2.95
2023-10-03T15:29:20.211Z,2.67
2023-10-03T15:32:23.121Z,2.00
2023-10-03T15:35:24.848Z,2.35
2023-10-03T15:38:28.055Z,2.15
2023-10-03T15:41:29.905Z,2.45
2023-10-03T15:44:31.838Z,2.28
2023-10-03T15:47:34.471Z,2.78
2023-10-03T15:50:41.255Z,1.90
2023-10-03T15:53:55.388Z,1.80
2023-10-03T15:56:57.513Z,2.03
2023-10-03T15:59:59.576Z,2.15
2023-10-03T16:03:01.793Z,1.92
2023-10-03T16:06:04.147Z,2.13
2023-10-03T16:09:14.208Z,2.13
2023-10-03T16:12:17.140Z,2.38
2023-10-03T16:15:19.576Z,2.70
2023-10-03T16:18:21.947Z,2.47
2023-10-03T16:21:24.165Z,2.10
2023-10-03T16:24:26.697Z,2.28
2023-10-03T16:27:31.077Z,2.13
2023-10-03T16:30:33.953Z,2.20
2023-10-03T16:33:36.019Z,2.03
2023-10-03T16:36:39.316Z,1.98
2023-10-03T16:39:41.217Z,1.73
2023-10-03T16:42:46.643Z,2.33
2023-10-03T16:45:48.803Z,2.58
2023-10-03T16:48:50.715Z,2.55
2023-10-03T16:51:52.712Z,2.35
2023-10-03T16:54:54.700Z,2.30
2023-10-03T16:57:56.930Z,2.05
2023-10-03T17:00:59.829Z,2.17
2023-10-03T17:04:02.111Z,2.58
2023-10-03T17:07:04.214Z,2.10
2023-10-03T17:10:11.818Z,2.40
2023-10-03T17:13:22.909Z,2.95
2023-10-03T17:16:25.339Z,2.60
2023-10-03T17:19:27.212Z,2.50
2023-10-03T17:22:29.010Z,2.60
2023-10-03T17:25:32.169Z,4.18
2023-10-03T17:28:33.936Z,3.35
2023-10-03T17:31:36.394Z,3.15
2023-10-03T17:34:38.600Z,3.00
2023-10-03T17:37:43.856Z,2.40
2023-10-03T17:40:45.637Z,2.78
2023-10-03T17:43:47.395Z,2.95
2023-10-03T17:46:49.920Z,2.95
2023-10-03T17:49:54.724Z,3.03
2023-10-03T17:52:56.697Z,3.03
2023-10-03T17:55:58.922Z,3.20
2023-10-03T17:59:02.137Z,2.83
2023-10-03T18:05:17.922Z,3.05
2023-10-03T18:08:20.373Z,2.50
2023-10-03T18:11:22.324Z,2.80
2023-10-03T18:14:24.777Z,2.70
2023-10-03T18:17:27.990Z,3.28
2023-10-03T18:20:32.897Z,2.97
2023-10-03T18:24:39.866Z,3.63
2023-10-03T18:28:26.004Z,2.80
2023-10-03T18:31:28.395Z,3.50
2023-10-03T18:34:30.969Z,3.38
2023-10-03T18:37:34.926Z,3.13
2023-10-03T18:40:38.364Z,2.50
2023-10-03T18:46:44.880Z,3.35
2023-10-03T18:49:57.299Z,2.75
2023-10-03T18:52:59.134Z,3.05
2023-10-03T18:56:01.461Z,2.60
2023-10-03T18:59:04.893Z,2.83
2023-10-03T19:05:10.388Z,3.00
2023-10-03T19:08:12.610Z,2.97
2023-10-03T19:11:18.654Z,2.67
2023-10-03T19:14:20.419Z,2.85
2023-10-03T19:17:22.541Z,3.15
2023-10-03T19:20:27.803Z,3.10
2023-10-03T19:23:38.664Z,3.20
2023-10-03T19:26:40.738Z,2.75
2023-10-03T19:29:42.519Z,2.90
2023-10-03T19:32:44.596Z,3.13
2023-10-03T19:35:46.507Z,3.03
2023-10-03T19:38:48.431Z,2.65
2023-10-03T19:41:50.722Z,3.28
2023-10-03T19:48:15.163Z,3.33
2023-10-03T19:51:19.714Z,3.47
2023-10-03T19:54:21.706Z,2.95
2023-10-03T19:57:27.020Z,3.25
2023-10-03T20:00:28.947Z,3.63
2023-10-03T20:03:31.612Z,2.97
2023-10-03T20:06:33.633Z,3.15
2023-10-03T20:09:36.349Z,2.85
2023-10-03T20:12:38.288Z,2.28
2023-10-03T20:15:40.853Z,2.80
2023-10-03T20:18:43.197Z,2.78
2023-10-03T20:21:46.936Z,2.60
2023-10-03T20:24:49.752Z,3.17
2023-10-03T20:27:52.597Z,3.15
2023-10-03T20:30:54.742Z,2.50
2023-10-03T20:33:56.700Z,2.80
2023-10-03T20:37:00.205Z,2.40
2023-10-03T20:43:04.930Z,2.92
2023-10-03T20:46:15.006Z,3.13
2023-10-03T20:49:18.155Z,2.35
2023-10-03T20:52:21.656Z,2.47
2023-10-03T20:58:26.112Z,2.40
2023-10-03T21:01:27.904Z,2.95
2023-10-03T21:04:29.750Z,2.17
2023-10-03T21:07:35.078Z,2.65
2023-10-03T21:10:41.912Z,1.85
2023-10-03T21:13:44.441Z,2.30
2023-10-03T21:16:46.326Z,2.23
2023-10-03T21:19:48.357Z,2.17
2023-10-03T21:22:50.110Z,2.17
2023-10-03T21:25:52.081Z,2.50
2023-10-03T21:28:54.788Z,2.30
2023-10-03T21:31:56.697Z,2.63
2023-10-03T21:35:01.781Z,2.08
2023-10-03T21:38:08.040Z,2.22
2023-10-03T21:41:10.747Z,2.17
2023-10-03T21:44:13.097Z,2.20
2023-10-03T21:47:15.103Z,2.17
2023-10-03T21:50:18.423Z,2.25
2023-10-03T21:56:22.929Z,2.10
2023-10-03T21:59:24.887Z,2.45
2023-10-03T22:02:30.903Z,2.53
2023-10-03T22:05:33.605Z,2.65
2023-10-03T22:08:35.831Z,1.75
2023-10-03T22:11:37.630Z,2.85
2023-10-03T22:14:39.601Z,2.05
2023-10-03T22:17:43.869Z,1.92
2023-10-03T22:20:45.902Z,1.95
2023-10-03T22:23:48.077Z,2.10
2023-10-03T22:26:50.717Z,2.15
2023-10-03T22:29:52.628Z,2.60
2023-10-03T22:32:54.778Z,2.13
2023-10-03T22:36:00.297Z,1.75
2023-10-03T22:39:04.223Z,2.15
2023-10-03T22:42:07.645Z,1.92
2023-10-03T22:45:12.427Z,2.35
2023-10-03T22:48:14.713Z,2.33
2023-10-03T22:51:16.972Z,1.93
2023-10-03T23:17:59.875Z,1.88
2023-10-03T23:37:37.386Z,2.05
2023-10-03T23:40:39.614Z,2.40
2023-10-03T23:43:41.835Z,2.13
2023-10-03T23:46:43.937Z,1.75
2023-10-03T23:49:45.822Z,1.60
